createdAt,value
2022-08-03T00:00:37.845Z,1005.55
2022-08-03T00:01:38.047Z,1005.59
2022-08-03T00:02:38.296Z,1005.60
2022-08-03T00:03:38.389Z,1005.56
2022-08-03T00:04:39.557Z,1005.56
2022-08-03T00:05:39.552Z,1005.55
2022-08-03T00:06:38.955Z,1005.60
2022-08-03T00:07:40.043Z,1005.53
2022-08-03T00:08:40.257Z,1005.56
2022-08-03T00:09:39.441Z,1005.58
2022-08-03T00:10:40.546Z,1005.51
2022-08-03T00:11:39.809Z,1005.56
2022-08-03T00:12:39.977Z,1005.53
2022-08-03T00:13:40.135Z,1005.51
2022-08-03T00:14:41.046Z,1005.52
2022-08-03T00:15:40.562Z,1005.51
2022-08-03T00:16:40.713Z,1005.49
2022-08-03T00:17:52.607Z,1005.48
2022-08-03T00:18:42.548Z,1005.51
2022-08-03T00:19:41.156Z,1005.46
2022-08-03T00:20:41.365Z,1005.53
2022-08-03T00:21:41.520Z,1005.44
2022-08-03T00:22:42.575Z,1005.48
2022-08-03T00:23:52.395Z,1005.40
2022-08-03T00:24:43.560Z,1005.48
2022-08-03T00:25:42.188Z,1005.41
2022-08-03T00:26:42.361Z,1005.40
2022-08-03T00:27:43.066Z,1005.40
2022-08-03T00:28:43.066Z,1005.47
2022-08-03T00:29:59.937Z,1005.49
2022-08-03T00:30:44.029Z,1005.41
2022-08-03T00:31:52.709Z,1005.41
2022-08-03T00:32:45.368Z,1005.40
2022-08-03T00:33:58.782Z,1005.43
2022-08-03T00:34:57.769Z,1005.38
2022-08-03T00:35:50.686Z,1005.36
2022-08-03T00:36:45.055Z,1005.35
2022-08-03T00:37:45.152Z,1005.41
2022-08-03T00:38:45.071Z,1005.42
2022-08-03T00:39:44.528Z,1005.43
2022-08-03T00:40:45.073Z,1005.44
2022-08-03T00:41:44.790Z,1005.40
2022-08-03T00:42:45.559Z,1005.39
2022-08-03T00:43:45.579Z,1005.39
2022-08-03T00:44:46.057Z,1005.40
2022-08-03T00:45:45.431Z,1005.42
2022-08-03T00:46:45.583Z,1005.36
2022-08-03T00:47:46.562Z,1005.40
2022-08-03T00:48:46.077Z,1005.36
2022-08-03T00:49:47.059Z,1005.41
2022-08-03T00:50:46.299Z,1005.39
2022-08-03T00:51:46.478Z,1005.36
2022-08-03T00:52:46.615Z,1005.37
2022-08-03T00:53:46.775Z,1005.39
2022-08-03T00:54:46.925Z,1005.45
2022-08-03T00:55:47.058Z,1005.38
2022-08-03T00:56:59.728Z,1005.38
2022-08-03T00:57:49.072Z,1005.40
2022-08-03T00:58:48.075Z,1005.40
2022-08-03T00:59:47.707Z,1005.37
2022-08-03T01:00:48.594Z,1005.39
2022-08-03T01:01:48.056Z,1005.31
2022-08-03T01:02:48.578Z,1005.34
2022-08-03T01:03:49.061Z,1005.34
2022-08-03T01:04:49.076Z,1005.33
2022-08-03T01:05:49.566Z,1005.37
2022-08-03T01:06:49.085Z,1005.33
2022-08-03T01:07:50.067Z,1005.32
2022-08-03T01:08:49.455Z,1005.30
2022-08-03T01:09:50.079Z,1005.34
2022-08-03T01:10:50.082Z,1005.34
2022-08-03T01:12:00.157Z,1005.32
2022-08-03T01:12:51.232Z,1005.24
2022-08-03T01:14:04.677Z,1005.32
2022-08-03T01:14:52.088Z,1005.30
2022-08-03T01:15:50.752Z,1005.26
2022-08-03T01:16:50.973Z,1005.27
2022-08-03T01:17:51.171Z,1005.27
2022-08-03T01:18:52.101Z,1005.28
2022-08-03T01:19:51.560Z,1005.21
2022-08-03T01:20:51.763Z,1005.17
2022-08-03T01:21:51.966Z,1005.30
2022-08-03T01:22:53.077Z,1005.28
2022-08-03T01:23:52.352Z,1005.27
2022-08-03T01:25:25.945Z,1005.20
2022-08-03T01:25:54.462Z,1005.30
2022-08-03T01:26:52.822Z,1005.31
2022-08-03T01:27:52.997Z,1005.29
2022-08-03T01:28:53.143Z,1005.27
2022-08-03T01:29:53.313Z,1005.26
2022-08-03T01:30:54.108Z,1005.30
2022-08-03T01:33:00.248Z,1005.31
2022-08-03T01:33:01.174Z,1005.28
2022-08-03T01:33:55.606Z,1005.21
2022-08-03T01:34:54.117Z,1005.29
2022-08-03T01:35:54.276Z,1005.31
2022-08-03T01:36:54.451Z,1005.26
2022-08-03T01:37:54.640Z,1005.25
2022-08-03T01:38:54.812Z,1005.20
2022-08-03T01:39:55.006Z,1005.21
2022-08-03T01:40:56.115Z,1005.19
2022-08-03T01:41:56.109Z,1005.27
2022-08-03T01:42:55.503Z,1005.18
2022-08-03T01:44:28.448Z,1005.22
2022-08-03T01:44:56.902Z,1005.17
2022-08-03T01:45:56.040Z,1005.18
2022-08-03T01:46:56.626Z,1005.16
2022-08-03T01:47:56.394Z,1005.15
2022-08-03T01:48:57.196Z,1005.14
2022-08-03T01:49:57.614Z,1005.15
2022-08-03T01:50:56.991Z,1005.13
2022-08-03T01:52:04.335Z,1005.19
2022-08-03T01:52:58.381Z,1005.13
2022-08-03T01:53:58.613Z,1005.21
2022-08-03T01:54:57.846Z,1005.15
2022-08-03T01:55:58.621Z,1005.14
2022-08-03T01:56:58.279Z,1005.19
2022-08-03T01:58:06.236Z,1005.16
2022-08-03T01:58:59.605Z,1005.13
2022-08-03T01:59:58.851Z,1005.17
2022-08-03T02:00:59.033Z,1005.17
2022-08-03T02:02:15.524Z,1005.18
2022-08-03T02:03:00.353Z,1005.18
2022-08-03T02:04:01.172Z,1005.13
2022-08-03T02:05:00.640Z,1005.14
2022-08-03T02:06:32.899Z,1005.17
2022-08-03T02:07:03.458Z,1005.12
2022-08-03T02:08:01.309Z,1005.13
2022-08-03T02:09:01.119Z,1005.17
2022-08-03T02:10:01.130Z,1005.17
2022-08-03T02:11:00.892Z,1005.23
2022-08-03T02:12:01.070Z,1005.15
2022-08-03T02:13:01.249Z,1005.18
2022-08-03T02:14:01.438Z,1005.17
2022-08-03T02:15:01.600Z,1005.22
2022-08-03T02:16:01.761Z,1005.15
2022-08-03T02:17:01.943Z,1005.20
2022-08-03T02:18:02.128Z,1005.10
2022-08-03T02:19:03.139Z,1005.23
2022-08-03T02:20:02.594Z,1005.20
2022-08-03T02:21:02.714Z,1005.20
2022-08-03T02:22:03.938Z,1005.17
2022-08-03T02:23:03.632Z,1005.22
2022-08-03T02:24:04.126Z,1005.22
2022-08-03T02:25:03.643Z,1005.23
2022-08-03T02:26:03.658Z,1005.17
2022-08-03T02:27:03.892Z,1005.19
2022-08-03T02:28:04.016Z,1005.19
2022-08-03T02:29:04.134Z,1005.21
2022-08-03T02:30:04.322Z,1005.17
2022-08-03T02:31:04.466Z,1005.26
2022-08-03T02:32:04.706Z,1005.14
2022-08-03T02:33:04.830Z,1005.21
2022-08-03T02:34:05.145Z,1005.25
2022-08-03T02:35:05.155Z,1005.22
2022-08-03T02:36:05.393Z,1005.22
2022-08-03T02:37:05.509Z,1005.24
2022-08-03T02:38:05.744Z,1005.17
2022-08-03T02:39:05.894Z,1005.24
2022-08-03T02:40:06.020Z,1005.16
2022-08-03T02:41:07.146Z,1005.17
2022-08-03T02:42:06.385Z,1005.24
2022-08-03T02:43:07.128Z,1005.22
2022-08-03T02:44:07.529Z,1005.20
2022-08-03T02:45:08.105Z,1005.21
2022-08-03T02:46:07.170Z,1005.20
2022-08-03T02:47:07.321Z,1005.21
2022-08-03T02:48:07.438Z,1005.17
2022-08-03T02:49:42.676Z,1005.22
2022-08-03T02:50:08.654Z,1005.18
2022-08-03T02:51:08.633Z,1005.18
2022-08-03T02:52:08.137Z,1005.22
2022-08-03T02:53:09.247Z,1005.17
2022-08-03T02:54:08.479Z,1005.13
2022-08-03T02:55:08.649Z,1005.19
2022-08-03T02:56:08.787Z,1005.12
2022-08-03T02:57:09.638Z,1005.13
2022-08-03T02:58:09.639Z,1005.13
2022-08-03T02:59:10.138Z,1005.16
2022-08-03T03:00:09.655Z,1005.14
2022-08-03T03:01:09.709Z,1005.11
2022-08-03T03:02:10.702Z,1005.12
2022-08-03T03:03:10.150Z,1005.12
2022-08-03T03:04:11.140Z,1005.05
2022-08-03T03:05:55.754Z,1005.11
2022-08-03T03:06:11.144Z,1005.09
2022-08-03T03:07:10.766Z,1005.04
2022-08-03T03:08:17.610Z,1005.09
2022-08-03T03:09:12.194Z,1005.12
2022-08-03T03:10:11.326Z,1005.13
2022-08-03T03:11:11.498Z,1005.13
2022-08-03T03:12:11.631Z,1005.12
2022-08-03T03:13:11.817Z,1005.10
2022-08-03T03:14:11.967Z,1005.14
2022-08-03T03:15:12.643Z,1005.12
2022-08-03T03:16:12.651Z,1005.18
2022-08-03T03:17:12.406Z,1005.20
2022-08-03T03:18:13.140Z,1005.17
2022-08-03T03:19:12.806Z,1005.14
2022-08-03T03:20:12.947Z,1005.13
2022-08-03T03:21:13.086Z,1005.13
2022-08-03T03:22:14.360Z,1005.12
2022-08-03T03:23:13.423Z,1005.10
2022-08-03T03:24:13.665Z,1005.10
2022-08-03T03:25:13.785Z,1005.03
2022-08-03T03:26:13.958Z,1005.07
2022-08-03T03:27:16.667Z,1005.12
2022-08-03T03:28:14.257Z,1005.09
2022-08-03T03:29:14.427Z,1005.09
2022-08-03T03:30:15.176Z,1005.06
2022-08-03T03:31:14.818Z,1005.14
2022-08-03T03:32:15.970Z,1005.08
2022-08-03T03:33:15.162Z,1005.08
2022-08-03T03:34:16.149Z,1005.10
2022-08-03T03:35:15.584Z,1005.07
2022-08-03T03:36:15.757Z,1005.07
2022-08-03T03:37:15.904Z,1005.03
2022-08-03T03:38:16.074Z,1005.07
2022-08-03T03:39:17.179Z,1005.06
2022-08-03T03:40:16.461Z,1005.13
2022-08-03T03:41:16.598Z,1005.09
2022-08-03T03:42:17.045Z,1005.10
2022-08-03T03:43:16.948Z,1005.12
2022-08-03T03:44:17.112Z,1005.08
2022-08-03T03:45:17.279Z,1005.08
2022-08-03T03:46:17.410Z,1005.10
2022-08-03T03:47:17.550Z,1005.13
2022-08-03T03:48:19.658Z,1005.12
2022-08-03T03:49:17.913Z,1005.10
2022-08-03T03:50:18.162Z,1005.13
2022-08-03T03:51:18.306Z,1005.15
2022-08-03T03:52:18.450Z,1005.05
2022-08-03T03:53:18.594Z,1005.16
2022-08-03T03:54:18.758Z,1005.14
2022-08-03T03:55:18.992Z,1005.10
2022-08-03T03:56:19.163Z,1005.12
2022-08-03T03:57:20.156Z,1005.13
2022-08-03T03:58:20.152Z,1005.11
2022-08-03T03:59:19.685Z,1005.09
2022-08-03T04:00:20.655Z,1004.99
2022-08-03T04:01:20.116Z,1005.02
2022-08-03T04:02:21.163Z,1005.05
2022-08-03T04:03:21.154Z,1005.08
2022-08-03T04:04:21.158Z,1005.05
2022-08-03T04:05:20.778Z,1005.05
2022-08-03T04:06:21.656Z,1005.03
2022-08-03T04:07:21.123Z,1005.05
2022-08-03T04:08:21.249Z,1004.99
2022-08-03T04:09:21.493Z,1005.09
2022-08-03T04:10:21.639Z,1005.03
2022-08-03T04:11:29.031Z,1005.07
2022-08-03T04:12:23.000Z,1005.05
2022-08-03T04:13:23.156Z,1005.12
2022-08-03T04:14:23.172Z,1005.04
2022-08-03T04:15:22.534Z,1005.07
2022-08-03T04:16:22.645Z,1005.02
2022-08-03T04:17:22.876Z,1005.00
2022-08-03T04:18:23.128Z,1004.99
2022-08-03T04:19:23.586Z,1005.01
2022-08-03T04:20:24.401Z,1004.99
2022-08-03T04:21:23.603Z,1004.96
2022-08-03T04:22:24.187Z,1004.98
2022-08-03T04:23:24.180Z,1004.97
2022-08-03T04:24:26.444Z,1005.01
2022-08-03T04:25:25.162Z,1004.97
2022-08-03T04:26:25.162Z,1004.98
2022-08-03T04:27:25.167Z,1004.98
2022-08-03T04:28:31.347Z,1004.95
2022-08-03T04:29:26.668Z,1004.93
2022-08-03T04:30:25.163Z,1005.01
2022-08-03T04:31:26.165Z,1004.92
2022-08-03T04:32:25.611Z,1004.91
2022-08-03T04:33:26.177Z,1004.87
2022-08-03T04:34:26.688Z,1004.92
2022-08-03T04:36:02.266Z,1004.92
2022-08-03T04:36:27.406Z,1004.93
2022-08-03T04:37:26.546Z,1004.92
2022-08-03T04:38:27.207Z,1004.90
2022-08-03T04:39:26.869Z,1004.91
2022-08-03T04:40:29.744Z,1004.91
2022-08-03T04:41:27.193Z,1004.93
2022-08-03T04:42:27.360Z,1004.88
2022-08-03T04:43:27.679Z,1004.92
2022-08-03T04:44:28.212Z,1004.91
2022-08-03T04:45:28.673Z,1004.80
2022-08-03T04:46:28.668Z,1004.76
2022-08-03T04:47:29.176Z,1004.74
2022-08-03T04:48:28.361Z,1004.64
2022-08-03T04:49:28.532Z,1004.67
2022-08-03T04:50:28.628Z,1004.65
2022-08-03T04:51:28.806Z,1004.48
2022-08-03T04:52:29.675Z,1004.51
2022-08-03T04:53:29.232Z,1004.48
2022-08-03T04:54:29.399Z,1004.53
2022-08-03T04:55:29.617Z,1004.41
2022-08-03T04:56:29.822Z,1004.32
2022-08-03T04:57:30.674Z,1004.33
2022-08-03T04:58:30.121Z,1004.30
2022-08-03T04:59:30.681Z,1004.26
2022-08-03T05:00:31.186Z,1004.26
2022-08-03T05:01:30.791Z,1004.18
2022-08-03T05:02:30.868Z,1004.19
2022-08-03T05:03:31.044Z,1004.10
2022-08-03T05:04:31.230Z,1004.13
2022-08-03T05:05:37.873Z,1004.05
2022-08-03T05:06:32.544Z,1004.03
2022-08-03T05:07:35.643Z,1004.06
2022-08-03T05:08:31.917Z,1003.93
2022-08-03T05:09:49.759Z,1003.94
2022-08-03T05:10:34.183Z,1003.91
2022-08-03T05:11:32.692Z,1003.95
2022-08-03T05:12:33.206Z,1003.92
2022-08-03T05:13:33.818Z,1003.89
2022-08-03T05:14:33.188Z,1003.82
2022-08-03T05:15:34.188Z,1003.76
2022-08-03T05:16:35.180Z,1003.75
2022-08-03T05:17:33.516Z,1003.70
2022-08-03T05:18:34.196Z,1003.69
2022-08-03T05:19:33.937Z,1003.69
2022-08-03T05:20:34.198Z,1003.67
2022-08-03T05:21:41.683Z,1003.61
2022-08-03T05:22:35.370Z,1003.60
2022-08-03T05:23:34.599Z,1003.64
2022-08-03T05:24:34.837Z,1003.60
2022-08-03T05:25:35.232Z,1003.53
2022-08-03T05:26:35.717Z,1003.49
2022-08-03T05:27:35.345Z,1003.52
2022-08-03T05:28:35.464Z,1003.53
2022-08-03T05:29:35.614Z,1003.48
2022-08-03T05:30:36.200Z,1003.38
2022-08-03T05:31:35.958Z,1003.36
2022-08-03T05:32:36.122Z,1003.30
2022-08-03T05:33:36.277Z,1003.29
2022-08-03T05:34:36.422Z,1003.31
2022-08-03T05:36:00.462Z,1003.32
2022-08-03T05:36:37.787Z,1003.25
2022-08-03T05:37:37.043Z,1003.28
2022-08-03T05:38:37.692Z,1003.29
2022-08-03T05:39:37.303Z,1003.21
2022-08-03T05:40:37.433Z,1003.27
2022-08-03T05:41:37.690Z,1003.25
2022-08-03T05:42:37.766Z,1003.20
2022-08-03T05:43:37.898Z,1003.20
2022-08-03T05:44:38.050Z,1003.24
2022-08-03T05:45:38.692Z,1003.18
2022-08-03T05:46:38.295Z,1003.20
2022-08-03T05:47:38.416Z,1003.16
2022-08-03T05:48:38.557Z,1003.21
2022-08-03T05:49:38.739Z,1003.16
2022-08-03T05:50:42.786Z,1003.14
2022-08-03T05:51:40.083Z,1003.09
2022-08-03T05:52:39.307Z,1003.10
2022-08-03T05:53:39.422Z,1003.11
2022-08-03T05:54:55.436Z,1003.11
2022-08-03T05:55:40.793Z,1003.11
2022-08-03T05:56:40.210Z,1003.07
2022-08-03T05:57:40.215Z,1003.09
2022-08-03T05:58:41.201Z,1003.01
2022-08-03T05:59:41.193Z,1002.96
2022-08-03T06:00:41.805Z,1003.06
2022-08-03T06:01:41.276Z,1002.99
2022-08-03T06:02:41.195Z,1002.99
2022-08-03T06:03:42.234Z,1002.97
2022-08-03T06:04:41.480Z,1002.91
2022-08-03T06:05:43.215Z,1002.93
2022-08-03T06:06:43.823Z,1002.84
2022-08-03T06:07:42.046Z,1002.84
2022-08-03T06:08:42.202Z,1002.82
2022-08-03T06:10:36.674Z,1002.85
2022-08-03T06:10:42.480Z,1002.80
2022-08-03T06:11:42.625Z,1002.53
2022-08-03T06:12:42.782Z,1002.41
2022-08-03T06:13:43.923Z,1002.44
2022-08-03T06:14:43.055Z,1002.42
2022-08-03T06:15:43.706Z,1002.50
2022-08-03T06:16:43.722Z,1002.52
2022-08-03T06:17:43.471Z,1002.54
2022-08-03T06:18:44.227Z,1002.49
2022-08-03T06:19:43.786Z,1002.47
2022-08-03T06:20:44.730Z,1002.44
2022-08-03T06:21:44.231Z,1002.43
2022-08-03T06:22:50.687Z,1002.38
2022-08-03T06:23:53.927Z,1002.35
2022-08-03T06:24:53.220Z,1002.30
2022-08-03T06:25:46.220Z,1002.36
2022-08-03T06:26:44.950Z,1002.29
2022-08-03T06:27:45.099Z,1002.24
2022-08-03T06:28:52.733Z,1002.25
2022-08-03T06:29:46.475Z,1002.28
2022-08-03T06:30:46.214Z,1002.19
2022-08-03T06:31:46.712Z,1002.19
2022-08-03T06:32:52.053Z,1002.06
2022-08-03T06:33:48.326Z,1002.19
2022-08-03T06:34:48.211Z,1002.16
2022-08-03T06:35:46.442Z,1002.14
2022-08-03T06:36:46.624Z,1002.11
2022-08-03T06:37:46.753Z,1002.14
2022-08-03T06:38:46.951Z,1002.07
2022-08-03T06:39:47.111Z,1002.08
2022-08-03T06:40:47.252Z,1002.09
2022-08-03T06:41:48.235Z,1002.10
2022-08-03T06:42:47.721Z,1002.08
2022-08-03T06:44:02.527Z,1002.10
2022-08-03T06:44:49.071Z,1002.10
2022-08-03T06:45:48.737Z,1002.03
2022-08-03T06:46:48.376Z,1002.05
2022-08-03T06:47:48.530Z,1002.03
2022-08-03T06:48:49.212Z,1002.03
2022-08-03T06:50:14.272Z,1001.99
2022-08-03T06:50:50.085Z,1002.00
2022-08-03T06:52:03.277Z,1002.06
2022-08-03T06:52:50.361Z,1002.01
2022-08-03T06:53:50.221Z,1002.03
2022-08-03T06:54:50.234Z,1001.96
2022-08-03T06:55:54.374Z,1001.99
2022-08-03T06:56:51.033Z,1001.97
2022-08-03T06:57:50.187Z,1001.98
2022-08-03T06:58:50.333Z,1001.94
2022-08-03T07:00:09.402Z,1002.02
2022-08-03T07:00:52.226Z,1002.00
2022-08-03T07:01:50.881Z,1001.97
2022-08-03T07:02:54.806Z,1001.84
2022-08-03T07:03:53.207Z,1001.86
2022-08-03T07:04:51.457Z,1001.79
2022-08-03T07:05:51.606Z,1001.84
2022-08-03T07:06:51.760Z,1001.77
2022-08-03T07:07:52.778Z,1001.67
2022-08-03T07:08:56.526Z,1001.61
2022-08-03T07:09:55.006Z,1001.60
2022-08-03T07:10:52.371Z,1001.59
2022-08-03T07:11:52.520Z,1001.50
2022-08-03T07:12:56.383Z,1001.45
2022-08-03T07:13:52.865Z,1001.48
2022-08-03T07:14:55.589Z,1001.52
2022-08-03T07:15:56.527Z,1001.51
2022-08-03T07:16:53.389Z,1001.51
2022-08-03T07:17:53.534Z,1001.57
2022-08-03T07:18:53.677Z,1001.61
2022-08-03T07:19:54.792Z,1001.54
2022-08-03T07:20:54.032Z,1001.56
2022-08-03T07:21:54.144Z,1001.58
2022-08-03T07:22:55.234Z,1001.59
2022-08-03T07:23:55.226Z,1001.63
2022-08-03T07:24:54.584Z,1001.60
2022-08-03T07:25:54.723Z,1001.56
2022-08-03T07:26:54.867Z,1001.66
2022-08-03T07:27:54.994Z,1001.57
2022-08-03T07:28:55.126Z,1001.57
2022-08-03T07:29:55.361Z,1001.53
2022-08-03T07:30:55.525Z,1001.58
2022-08-03T07:31:56.230Z,1001.56
2022-08-03T07:32:55.855Z,1001.59
2022-08-03T07:33:55.995Z,1001.48
2022-08-03T07:35:00.610Z,1001.57
2022-08-03T07:35:58.289Z,1001.59
2022-08-03T07:36:56.381Z,1001.59
2022-08-03T07:37:57.219Z,1001.60
2022-08-03T07:38:57.710Z,1001.58
2022-08-03T07:39:57.629Z,1001.55
2022-08-03T07:40:57.157Z,1001.51
2022-08-03T07:41:57.282Z,1001.62
2022-08-03T07:42:57.410Z,1001.61
2022-08-03T07:43:58.255Z,1001.59
2022-08-03T07:44:57.757Z,1001.56
2022-08-03T07:45:58.758Z,1001.57
2022-08-03T07:46:58.119Z,1001.53
2022-08-03T07:47:58.273Z,1001.55
2022-08-03T07:49:10.204Z,1001.58
2022-08-03T07:50:01.263Z,1001.57
2022-08-03T07:51:02.640Z,1001.54
2022-08-03T07:52:00.781Z,1001.55
2022-08-03T07:53:00.753Z,1001.59
2022-08-03T07:53:59.372Z,1001.49
2022-08-03T07:54:59.562Z,1001.34
2022-08-03T07:56:00.241Z,1001.24
2022-08-03T07:56:59.832Z,1001.20
2022-08-03T07:58:01.014Z,1001.23
2022-08-03T07:59:00.162Z,1001.29
2022-08-03T08:00:02.480Z,1001.31
2022-08-03T08:01:01.290Z,1001.35
2022-08-03T08:02:00.759Z,1001.30
2022-08-03T08:03:00.948Z,1001.37
2022-08-03T08:04:01.826Z,1001.39
2022-08-03T08:05:05.491Z,1001.35
2022-08-03T08:06:02.507Z,1001.36
2022-08-03T08:07:02.248Z,1001.38
2022-08-03T08:08:01.885Z,1001.37
2022-08-03T08:09:02.047Z,1001.37
2022-08-03T08:10:03.209Z,1001.45
2022-08-03T08:11:03.243Z,1001.37
2022-08-03T08:12:03.255Z,1001.42
2022-08-03T08:13:02.750Z,1001.40
2022-08-03T08:14:02.942Z,1001.48
2022-08-03T08:15:03.112Z,1001.44
2022-08-03T08:16:03.252Z,1001.41
2022-08-03T08:17:07.284Z,1001.42
2022-08-03T08:18:05.255Z,1001.39
2022-08-03T08:19:03.731Z,1001.50
2022-08-03T08:20:04.259Z,1001.55
2022-08-03T08:21:04.089Z,1001.49
2022-08-03T08:22:05.250Z,1001.55
2022-08-03T08:23:12.141Z,1001.53
2022-08-03T08:24:10.750Z,1001.41
2022-08-03T08:25:06.758Z,1001.49
2022-08-03T08:26:05.025Z,1001.41
2022-08-03T08:27:05.199Z,1001.41
2022-08-03T08:28:29.039Z,1001.38
2022-08-03T08:29:06.514Z,1001.43
2022-08-03T08:30:11.499Z,1001.40
2022-08-03T08:31:07.798Z,1001.42
2022-08-03T08:32:05.958Z,1001.46
2022-08-03T08:33:06.119Z,1001.44
2022-08-03T08:34:07.253Z,1001.39
2022-08-03T08:35:06.507Z,1001.41
2022-08-03T08:36:06.681Z,1001.40
2022-08-03T08:37:06.876Z,1001.35
2022-08-03T08:38:07.052Z,1001.38
2022-08-03T08:39:07.270Z,1001.36
2022-08-03T08:40:07.440Z,1001.46
2022-08-03T08:41:07.630Z,1001.37
2022-08-03T08:42:07.796Z,1001.33
2022-08-03T08:43:07.977Z,1001.31
2022-08-03T08:44:08.182Z,1001.27
2022-08-03T08:45:08.361Z,1001.35
2022-08-03T08:46:08.680Z,1001.30
2022-08-03T08:47:08.756Z,1001.31
2022-08-03T08:48:09.302Z,1001.24
2022-08-03T08:49:09.799Z,1001.29
2022-08-03T08:50:14.847Z,1001.26
2022-08-03T08:51:11.396Z,1001.25
2022-08-03T08:52:25.306Z,1001.27
2022-08-03T08:53:15.586Z,1001.30
2022-08-03T08:54:10.925Z,1001.26
2022-08-03T08:55:10.761Z,1001.25
2022-08-03T08:56:10.306Z,1001.26
2022-08-03T08:57:26.814Z,1001.19
2022-08-03T08:58:12.645Z,1001.17
2022-08-03T08:59:11.869Z,1001.18
2022-08-03T09:00:11.027Z,1001.23
2022-08-03T09:01:11.273Z,1001.22
2022-08-03T09:02:12.354Z,1001.16
2022-08-03T09:03:11.537Z,1001.16
2022-08-03T09:04:13.268Z,1001.19
2022-08-03T09:05:11.891Z,1001.21
2022-08-03T09:06:12.091Z,1001.26
2022-08-03T09:07:19.950Z,1001.20
2022-08-03T09:08:14.398Z,1001.22
2022-08-03T09:10:00.297Z,1001.19
2022-08-03T09:10:14.007Z,1001.20
2022-08-03T09:11:14.771Z,1001.22
2022-08-03T09:12:37.580Z,1001.27
2022-08-03T09:13:15.251Z,1001.22
2022-08-03T09:14:37.254Z,1001.23
2022-08-03T09:15:17.299Z,1001.22
2022-08-03T09:16:14.759Z,1001.14
2022-08-03T09:17:17.434Z,1001.17
2022-08-03T09:18:14.098Z,1001.18
2022-08-03T09:19:14.251Z,1001.20
2022-08-03T09:20:15.318Z,1001.16
2022-08-03T09:21:30.568Z,1001.19
2022-08-03T09:22:17.318Z,1001.12
2022-08-03T09:24:00.649Z,1001.16
2022-08-03T09:24:31.236Z,1001.07
2022-08-03T09:25:25.178Z,1001.02
2022-08-03T09:26:17.660Z,1001.04
2022-08-03T09:27:16.072Z,1001.04
2022-08-03T09:28:32.367Z,1001.03
2022-08-03T09:29:17.778Z,1001.01
2022-08-03T09:30:33.707Z,1001.03
2022-08-03T09:31:17.618Z,1001.02
2022-08-03T09:32:16.717Z,1001.05
2022-08-03T09:33:16.864Z,1001.04
2022-08-03T09:34:17.101Z,1001.02
2022-08-03T09:35:23.780Z,1000.99
2022-08-03T09:36:19.303Z,1000.95
2022-08-03T09:37:17.754Z,1000.98
2022-08-03T09:38:17.689Z,1000.89
2022-08-03T09:39:17.831Z,1000.94
2022-08-03T09:40:17.984Z,1000.90
2022-08-03T09:41:18.140Z,1000.86
2022-08-03T09:42:18.551Z,1000.88
2022-08-03T09:43:18.398Z,1000.88
2022-08-03T09:44:25.834Z,1000.87
2022-08-03T09:45:20.293Z,1000.90
2022-08-03T09:46:18.907Z,1000.86
2022-08-03T09:47:19.160Z,1000.89
2022-08-03T09:48:19.802Z,1000.81
2022-08-03T09:49:20.339Z,1000.88
2022-08-03T09:50:20.283Z,1000.84
2022-08-03T09:51:32.850Z,1000.72
2022-08-03T09:52:32.046Z,1000.74
2022-08-03T09:53:21.811Z,1000.66
2022-08-03T09:54:20.784Z,1000.69
2022-08-03T09:56:05.119Z,1000.70
2022-08-03T09:56:34.033Z,1000.69
2022-08-03T09:57:21.910Z,1000.65
2022-08-03T09:58:21.153Z,1000.66
2022-08-03T09:59:21.301Z,1000.62
2022-08-03T10:00:21.453Z,1000.69
2022-08-03T10:01:24.222Z,1000.66
2022-08-03T10:02:22.292Z,1000.62
2022-08-03T10:03:21.930Z,1000.63
2022-08-03T10:04:22.091Z,1000.64
2022-08-03T10:05:22.218Z,1000.68
2022-08-03T10:06:22.388Z,1000.67
2022-08-03T10:07:24.317Z,1000.64
2022-08-03T10:08:22.680Z,1000.66
2022-08-03T10:09:22.812Z,1000.56
2022-08-03T10:10:30.858Z,1000.64
2022-08-03T10:11:24.802Z,1000.64
2022-08-03T10:12:23.406Z,1000.67
2022-08-03T10:13:23.827Z,1000.66
2022-08-03T10:14:23.809Z,1000.62
2022-08-03T10:16:22.134Z,1000.58
2022-08-03T10:16:25.726Z,1000.45
2022-08-03T10:17:25.340Z,1000.48
2022-08-03T10:18:24.594Z,1000.40
2022-08-03T10:19:24.719Z,1000.33
2022-08-03T10:20:25.801Z,1000.22
2022-08-03T10:21:25.051Z,1000.16
2022-08-03T10:22:25.842Z,1000.20
2022-08-03T10:23:25.454Z,1000.15
2022-08-03T10:24:25.567Z,1000.07
2022-08-03T10:25:33.022Z,1000.12
2022-08-03T10:26:27.314Z,1000.06
2022-08-03T10:27:26.149Z,1000.09
2022-08-03T10:28:26.367Z,1000.15
2022-08-03T10:29:27.309Z,1000.12
2022-08-03T10:30:26.786Z,1000.13
2022-08-03T10:31:27.057Z,1000.14
2022-08-03T10:32:27.164Z,1000.17
2022-08-03T10:33:50.823Z,1000.14
2022-08-03T10:34:28.624Z,1000.16
2022-08-03T10:35:27.833Z,1000.15
2022-08-03T10:36:28.941Z,1000.17
2022-08-03T10:37:28.812Z,1000.16
2022-08-03T10:38:28.292Z,1000.19
2022-08-03T10:39:29.313Z,1000.18
2022-08-03T10:40:59.023Z,1000.16
2022-08-03T10:41:31.316Z,1000.11
2022-08-03T10:42:29.003Z,1000.17
2022-08-03T10:43:29.807Z,1000.21
2022-08-03T10:44:30.314Z,1000.16
2022-08-03T10:45:29.825Z,1000.20
2022-08-03T10:46:29.696Z,1000.17
2022-08-03T10:47:30.817Z,1000.21
2022-08-03T10:48:30.173Z,1000.14
2022-08-03T10:49:35.315Z,1000.08
2022-08-03T10:50:31.565Z,1000.08
2022-08-03T10:51:30.683Z,1000.02
2022-08-03T10:52:33.853Z,1000.07
2022-08-03T10:53:32.036Z,1000.06
2022-08-03T10:54:31.309Z,1000.07
2022-08-03T10:55:31.859Z,1000.01
2022-08-03T10:56:48.116Z,1000.00
2022-08-03T10:57:32.792Z,999.96
2022-08-03T10:58:32.327Z,999.99
2022-08-03T10:59:32.819Z,999.92
2022-08-03T11:00:32.867Z,999.90
2022-08-03T11:01:58.717Z,999.86
2022-08-03T11:02:33.734Z,999.83
2022-08-03T11:03:33.880Z,999.82
2022-08-03T11:04:33.823Z,999.70
2022-08-03T11:05:33.820Z,999.68
2022-08-03T11:06:37.394Z,999.60
2022-08-03T11:07:34.317Z,999.42
2022-08-03T11:08:33.705Z,999.39
2022-08-03T11:09:33.869Z,999.35
2022-08-03T11:10:34.045Z,999.31
2022-08-03T11:11:34.206Z,999.20
2022-08-03T11:12:34.365Z,999.21
2022-08-03T11:13:34.835Z,999.30
2022-08-03T11:14:34.707Z,999.32
2022-08-03T11:15:35.332Z,999.24
2022-08-03T11:16:35.113Z,999.31
2022-08-03T11:17:46.397Z,999.22
2022-08-03T11:18:37.330Z,999.33
2022-08-03T11:19:35.569Z,999.33
2022-08-03T11:20:36.833Z,999.31
2022-08-03T11:21:35.945Z,999.33
2022-08-03T11:22:36.113Z,999.35
2022-08-03T11:24:04.386Z,999.38
2022-08-03T11:24:38.332Z,999.39
2022-08-03T11:25:54.626Z,999.33
2022-08-03T11:26:37.931Z,999.43
2022-08-03T11:27:37.143Z,999.32
2022-08-03T11:28:37.283Z,999.37
2022-08-03T11:29:37.410Z,999.44
2022-08-03T11:30:37.571Z,999.46
2022-08-03T11:31:53.707Z,999.43
2022-08-03T11:32:39.914Z,999.43
2022-08-03T11:33:39.112Z,999.44
2022-08-03T11:34:38.326Z,999.41
2022-08-03T11:35:38.842Z,999.39
2022-08-03T11:36:38.847Z,999.44
2022-08-03T11:37:38.714Z,999.36
2022-08-03T11:38:39.929Z,999.42
2022-08-03T11:39:39.162Z,999.42
2022-08-03T11:40:39.266Z,999.44
2022-08-03T11:41:43.694Z,999.40
2022-08-03T11:42:41.357Z,999.35
2022-08-03T11:43:39.842Z,999.36
2022-08-03T11:44:39.960Z,999.42
2022-08-03T11:45:40.099Z,999.50
2022-08-03T11:46:40.238Z,999.44
2022-08-03T11:47:50.668Z,999.42
2022-08-03T11:48:41.571Z,999.43
2022-08-03T11:49:41.367Z,999.45
2022-08-03T11:50:41.839Z,999.45
2022-08-03T11:51:41.103Z,999.40
2022-08-03T11:52:41.255Z,999.27
2022-08-03T11:53:42.102Z,999.31
2022-08-03T11:54:41.625Z,999.27
2022-08-03T11:55:41.786Z,999.25
2022-08-03T11:56:41.954Z,999.21
2022-08-03T11:59:01.342Z,999.22
2022-08-03T11:59:01.933Z,999.21
2022-08-03T11:59:43.857Z,999.24
2022-08-03T12:00:42.895Z,999.21
2022-08-03T12:01:42.929Z,999.25
2022-08-03T12:02:43.939Z,999.22
2022-08-03T12:03:44.293Z,999.19
2022-08-03T12:04:44.340Z,999.29
2022-08-03T12:05:51.698Z,999.26
2022-08-03T12:06:47.408Z,999.22
2022-08-03T12:08:05.053Z,999.17
2022-08-03T12:08:45.846Z,999.13
2022-08-03T12:09:45.344Z,999.18
2022-08-03T12:10:44.894Z,999.20